Portada
METAR-TAF:

METAR-TAF

Aeropuertos :

Aeropuerto de Santiago de Compostela

Santiago de Compostela, España

latitud: 42-54N, longitud: 008-26W, altitud: 370 m

Observación

El informe se hizo hace 21 minutos, a las 19:30 UTC
Viento 1 kt con dirección variable
Temperatura 11°C
Humedad 76%
Presión 1018 hPa
Visibilidad 10 km o más
Escasas nubes a una altura de 1000 ft
Nubes dispersas a una altura de 4700 ft

METAR: LEST 291930Z VRB01KT 9999 FEW010 SCT047 11/07 Q1018 NOSIG

Hora: 20:51 (19:51 UTC)

Pronóstico

El informe se hizo hace 2 horas y 51 minutos, a las 17:00 UTC
Pronóstico válido del 29 a las 18 UTC al 30 a las 18 UTC
Viento 7 kt del este
Visibilidad 10 km o más
Nubes dispersas a una altura de 3500 ft

TAF: LEST 291700Z 2918/3018 10007KT 9999 SCT035 TX16/3014Z TN07/3006Z

Observaciones y pronósticos meteorológicos de más de 4000 aeropuertos (mensajes METAR y TAF).

Los puntos amarillos y rojos representan las estaciones disponibles.

Ponga el ratón en el punto deseado para ver el nombre de la estación.

Haga clic para ver las observaciones y los pronósticos meteorológicos.

Para cambiar el mapa : haga clic en los botones verdes con una cruz de color negro para hacer un zoom, en el botón verde con un guión para alejar o en las flechas verdes para mapas adyacentes.


METAR-TAF: